Hardwood, Louisiana
Current Conditions -  °F | °C
As of 8:35 AM on Saturday 22 Nov 2014 (Local Time) from KHZR Reporting Station
Scattered Clouds Scattered Clouds  
Wind Chill: 59°   Ceiling: Unl
Heat Index: 59°   Visibility: 10mi
Dew Point: 51°   Wind: 8mph
Humidity: 73%   Direction: 90°E
Pressure: 30.2"   Gusts: NA
Location:  30.8804°N, 91.4243°W
Report Text: KHZR 221435Z AUTO 09007KT 10SM SCT034 SCT042 15/10 A3020 RMK AO2 LTG DSNT NW T01500103
Loading
Personal Weather Stations






























Interactive Weather Map New forecast layout! Learn more

10-Day Weather Forecast

Advertisements
Track Severe Weather on mobile